WETTERDATEN

GESTERN
Time Temp. Taup. r.Fe. Windrich Windstärke Windböe Druck 1h Prec. 24h Prec.
00:03 -8.3 -10.7 81 198 0.3 0.3 1007.6 0.0000 0.0000
00:13 -8.1 -10.5 81 0 0.3 1007.6 0.0000 0.0000
00:24 -7.8 -10.2 81 0 0.3 1007.4 0.0000 0.0000
00:43 -7.4 -9.8 81 0 0.3 1007 0.0000 0.0000
00:53 -7.2 -9.6 81 0 0.3 1006.6 0.0000 0.0000
01:14 -6.8 -9.2 81 191 0.3 0.8 1006.2 0.0000 0.0000
01:23 -6.5 -8.9 81 0 0.3 1006 0.0000 0.0000
01:34 -6.1 -8.5 81 0 0.8 1006.2 0.0000 0.0000
01:44 -5.7 -8.3 80 0 0.3 1006.2 0.0000 0.0000
01:54 -5.3 -8 79 0 0.3 1006.2 0.0000 0.0000
02:04 -4.9 -7.6 79 0 0.3 1006 0.0000 0.0000
02:14 -4.6 -7.2 80 0 0.3 1005.9 0.0000 0.0000
02:24 -4.3 -6.5 83 0 0.3 1006.2 0.0000 0.0000
02:34 -4.1 -6.1 84 0 0.3 1005.7 0.0000 0.0000
02:45 -4 -5.9 85 0 0.3 1005.6 0.0000 0.0000
02:54 -3.9 -5.5 87 0 0.8 1005.5 0.0000 0.0000
03:04 -3.7 -5.3 87 0 0.3 1005.3 0.0000 0.0000
03:14 -3.6 -5 89 0 0.3 1005.4 0.1010 0.1000
03:25 -3.5 -4.7 90 0 0.3 1005.1 0.1010 0.1000
03:34 -3.4 -4.6 90 0 0.3 1005.1 0.1010 0.1000
03:44 -3.3 -4.5 90 0 0.3 1005.1 0.1010 0.1000
03:55 -3.3 -4.7 89 0 0.3 1005 0.1010 0.1000
04:05 -3.2 -4.6 89 0 0.3 1005.3 0.0000 0.1000
04:14 -3.2 -4.6 89 0 0.3 1005.3 0.0000 0.1000
04:25 -3.2 -4.6 89 0 0.3 1004.7 0.0000 0.1000
04:35 -3.1 -4.5 89 0 0.3 1004.7 0.0000 0.1000
04:45 -3.1 -4.5 89 0 0.3 1004.3 0.0000 0.1000
04:55 -3.1 -4.5 89 0 0.3 1004.2 0.0000 0.1000
05:05 -3.1 -4.5 89 0 0.8 1004.2 0.0000 0.1000
05:15 -3.1 -4.5 89 0 0.3 1004.6 0.0000 0.1000
05:25 -3.1 -4.5 89 0 0.3 1004.5 0.0000 0.1000
05:35 -3 -4.4 89 0 0.3 1004.1 0.0000 0.1000
05:45 -2.8 -4.2 89 0 0.3 1004 0.0000 0.1000
05:55 -2.7 -4.1 89 0 0.3 1004 0.0000 0.1000
06:05 -2.5 -3.7 90 0 0.8 1004.3 0.0000 0.1000
06:16 -2.4 -3.7 90 0 0.3 1004.2 0.0000 0.1000
06:26 -2.3 -3.7 89 0 0.8 1004.1 0.0000 0.1000
06:35 -2.3 -3.7 89 0 0.3 1003.9 0.0000 0.1000
06:45 -2.3 -3.7 89 0 0.3 1004.6 0.0000 0.1000
06:56 -2.2 -3.6 89 0 0.3 1004.1 0.0000 0.1000
07:06 -2.2 -3.5 90 0 0.3 1004.2 0.0000 0.1000
07:15 -2.2 -3.5 90 180 0.3 0.3 1004.3 0.0000 0.1000
07:26 -2.2 -3.3 91 0 0.3 1004.3 0.0000 0.1000
07:36 -2.2 -3.2 92 188 0.3 0.8 1004.7 0.0000 0.1000
07:46 -2.1 -3.1 92 0 0.3 1004.7 0.0000 0.1000
07:56 -2 -3.3 90 0 0.8 1005 0.0000 0.1000
08:06 -2 -3.4 89 213 0.3 0.8 1005 0.0000 0.1000
08:16 -2 -3.5 88 0 0.3 1005.4 0.0000 0.1000
08:26 -2 -3.7 87 0 0.8 1005.3 0.0000 0.1000
08:37 -2 -3.8 86 194 0.3 0.3 1005.3 0.0000 0.1000
08:46 -1.9 -3.7 86 0 0.3 1005.6 0.0000 0.1000
08:56 -1.9 -3.7 86 0 0.8 1005.8 0.0000 0.1000
09:06 -1.9 -3.7 86 0 0.3 1005.5 0.0000 0.1000
09:17 -1.8 -3.6 86 198 0.3 0.8 1005.7 0.0000 0.1000
09:26 -1.8 -3.6 86 0 0.3 1005.9 0.0000 0.1000
09:36 -1.6 -3.4 86 0 0.3 1006.3 0.0000 0.1000
09:47 -1.4 -3.2 86 0 0.3 1006 0.0000 0.1000
09:57 -1 -2.9 85 0 0.8 1006 0.0000 0.1000
10:07 -0.7 -3.1 82 0 0.3 1005.9 0.0000 0.1000
10:17 -0.5 -3.6 77 0 0.8 1006 0.0000 0.1000
10:27 -0.4 -4.2 73 0 0.8 1006.2 0.0000 0.1000
10:37 -0.3 -3.9 74 225 0.3 0.8 1006.2 0.0000 0.1000
10:47 -0.2 -3.6 75 0 0.8 1006.7 0.0000 0.1000
10:58 -0.1 -3.4 76 0 0.8 1007.1 0.0000 0.1000
11:07 0 -3.4 75 215 0.3 0.8 1007.2 0.0000 0.1000
11:17 0.1 -3.4 75 0 0.3 1007.3 0.0000 0.1000
11:27 0.1 -3.7 73 0 0.8 1007.4 0.0000 0.1000
11:38 0.1 -3.8 72 0 0.8 1007.5 0.0000 0.1000
11:48 0 -3.9 72 0 0.8 1007.6 0.0000 0.1000
11:57 -0.1 -4 72 0 0.3 1007.9 0.0000 0.1000
12:08 -0.2 -4.5 70 0 0.3 1008.1 0.0000 0.1000
12:18 -0.3 -4.7 69 225 0.3 0.3 1008.1 0.0000 0.1000
12:28 -0.3 -5.1 67 225 0.3 0.8 1008.2 0.0000 0.1000
12:38 -0.3 -5.1 67 225 0.3 0.8 1008.3 0.0000 0.1000
12:48 -0.3 -6 62 225 0.3 0.8 1008.4 0.0000 0.1000
12:58 -0.5 -6.9 58 225 0.3 0.8 1008.7 0.0000 0.1000
13:08 -0.7 -4.6 72 225 0.3 0.8 1008.7 0.0000 0.1000
13:19 -0.8 -5 70 225 0.3 0.8 1008.4 0.0000 0.1000
13:28 -0.9 -6.5 62 233 0.3 0.8 1008.7 0.0000 0.1000
13:38 -0.8 -6.6 61 216 0.3 0.8 1008.9 0.0000 0.1000
13:48 -0.6 -6.6 60 240 0.3 0.8 1009.1 0.0000 0.1000
13:59 -0.4 -6.6 59 216 0.3 0.8 1009 0.0000 0.1000
14:08 -0.3 -6.7 58 233 0.3 0.8 1009.1 0.0000 0.1000
14:18 -0.5 -6.9 58 0 0.3 1009.3 0.0000 0.1000
14:29 -0.8 -7.2 58 0 0.8 1009.2 0.0000 0.1000
14:39 -1.1 -7.7 57 0 0.8 1009.8 0.0000 0.1000
14:49 -1.3 -7.5 59 225 0.3 0.8 1009.8 0.0000 0.1000
14:58 -1.5 -7.5 60 225 0.3 0.8 1009.9 0.0000 0.1000
15:09 -1.6 -7.6 60 234 0.3 0.8 1010.1 0.0000 0.1000
15:19 -1.8 -8.2 58 0 0.8 1010.4 0.0000 0.1000
15:29 -2 -8.2 59 225 0.3 1.1 1010.6 0.0000 0.1000
15:39 -2.2 -8.2 60 270 0.3 0.8 1010.7 0.0000 0.1000
15:49 -2.4 -8.2 61 236 0.3 0.8 1011.1 0.0000 0.1000
15:59 -2.5 -8.3 61 239 0.3 0.8 1011.2 0.0000 0.1000
16:09 -2.7 -8.3 62 233 0.3 0.8 1011.3 0.0000 0.1000
16:20 -3.1 -8.1 65 225 0.3 0.8 1011.4 0.0000 0.1000
16:29 -3.2 -8 66 233 0.3 0.8 1011.4 0.0000 0.1000
16:39 -3.6 -8.3 67 270 0.3 0.8 1010.8 0.0000 0.1000
16:50 -3.7 -8 69 270 0.3 0.8 1010.7 0.0000 0.1000
17:00 -3.9 -8.2 69 270 0.3 0.8 1010.7 0.0000 0.1000
17:09 -4.1 -8.4 69 233 0.3 0.8 1010.7 0.0000 0.1000
17:19 -4.3 -8.9 67 0 0.8 1010.8 0.0000 0.1000
17:30 -4.2 -8.8 67 270 0.3 0.8 1010.8 0.0000 0.1000
17:40 -4.1 -8.9 66 233 0.3 0.8 1010.8 0.0000 0.1000
17:50 -4.1 -8.6 68 233 0.3 0.8 1011.2 0.0000 0.1000
18:00 -4.1 -8.7 67 240 0.3 0.8 1011.3 0.0000 0.1000
18:10 -4.1 -8.7 67 240 0.3 0.8 1011.6 0.0000 0.1000
18:20 -4.3 -8.6 69 240 0.3 0.8 1011.7 0.0000 0.1000
18:30 -4.6 -8.7 70 225 0.3 0.8 1011.8 0.0000 0.1000
18:40 -4.9 -9 70 225 0.3 0.8 1012.1 0.0000 0.1000
18:50 -5 -9.3 69 239 0.3 0.8 1012.2 0.0000 0.1000
19:00 -5.3 -9.4 70 225 0.3 0.8 1012.3 0.0000 0.1000
19:11 -5.5 -9.4 71 225 0.3 0.8 1012.3 0.0000 0.1000
19:21 -5.9 -9.8 71 239 0.3 0.8 1012.8 0.0000 0.1000
19:30 -6.1 -9.9 72 225 0.3 0.3 1013.1 0.0000 0.1000
19:40 -6.4 -10.1 72 239 0.3 0.8 1013.1 0.0000 0.1000
19:51 -6.7 -10.3 73 232 0.3 0.8 1013.1 0.0000 0.1000
20:01 -6.8 -10.2 74 233 0.3 0.8 1013.4 0.0000 0.1000
20:10 -7 -10.6 73 270 0.3 0.8 1013.4 0.0000 0.1000
20:21 -7.2 -10.6 74 225 0.3 0.8 1013.4 0.0000 0.1000
20:31 -7.4 -10.8 74 225 0.3 0.8 1013.3 0.0000 0.1000
20:41 -7.7 -11.1 74 225 0.3 0.3 1013.6 0.0000 0.1000
20:51 -7.8 -11.1 75 234 0.3 0.3 1013.3 0.0000 0.1000
21:01 -7.9 -11.2 75 270 0.3 0.8 1013.6 0.0000 0.1000
21:11 -7.7 -10.8 76 270 0.3 0.8 1013.9 0.0000 0.1000
21:21 -7.8 -11.1 75 240 0.3 0.8 1013.8 0.0000 0.1000
21:31 -8 -11.2 75 270 0.3 0.8 1013.6 0.0000 0.1000
21:41 -8.2 -11.4 75 233 0.3 0.8 1013.8 0.0000 0.1000
21:51 -8.3 -11.5 75 233 0.3 0.8 1013.8 0.0000 0.1000
22:01 -8.5 -11.4 77 225 0.3 0.8 1013.8 0.0000 0.1000
22:12 -8.7 -11.8 76 233 0.3 0.8 1014 0.0000 0.1000
22:22 -9 -12.2 75 240 0.3 0.8 1014 0.0000 0.1000
22:31 -9.4 -12.5 76 270 0.3 0.8 1014.1 0.0000 0.1000
22:42 -9.7 -12.8 76 240 0.3 0.8 1014.2 0.0000 0.1000
22:52 -9.8 -12.7 77 232 0.3 0.8 1014 0.0000 0.1000
23:02 -10.2 -13.2 76 225 0.3 0.8 1014 0.0000 0.1000
23:11 -10.5 -13.4 77 232 0.3 0.8 1013.9 0.0000 0.1000
23:22 -10.7 -13.6 77 225 0.3 0.8 1013.8 0.0000 0.1000
23:32 -11 -14 76 216 0.3 0.3 1013.8 0.0000 0.1000
23:42 -11.3 -14 78 0 0.3 1013.4 0.0000 0.1000
23:52 -11.4 -14.3 77 225 0.3 0.3 1013.3 0.0000

TAGESSTATISTIK

2021-01-14
TEMPERATUR
MITTEL
-3.8
MAXIMUM
0.1
11:17
MINIMUM
-11.4
23:52
LUFTDRUCK
MITTEL
1008.6
MAXIMUM
1014.2
22:42
MINIMUM
1003.9
06:35
TAUPUNKT
MITTEL
-7.1
MAXIMUM
-2.9
09:57
MINIMUM
-14.3
23:52
FEUCHTIGKEIT
MITTEL
77
MAXIMUM
92
07:36
MINIMUM
57
14:39
WINDSTÄRKE
MITTEL
0.2
MAXIMUM
0.3
00:03
WINDBÖE
MITTEL
0.6
MAXIMUM
1.1
15:29
WINDRICHTUNG
VORHERRSCHENDE
SW
40.4%
N
0.0
NO
0.0
O
0.0
SO
0.0
S
4.3
SW
40.4
W
7.1
NW
0.0
NIEDERSCHLAG
REGEN STUNDE
0.1
REGEN TAG
0.1
TEMPERATUR (°C)
MINIMUM
-11.4
MAXIMUM
0.1
MITTEL
-3.8
LUFTDRUCK (hpa)
MINIMUM
1003.9
MAXIMUM
1014.2
MITTEL
1008.6
MESSGERÄT